Time;durP1;ratioP1;P1;durP2;ratioP2;P2;SDS_P1;SDS_P2;PMS_P1;PMS_P2;Temp;Humidity;BMP_temperature;BMP_pressure;BME280_temperature;BME280_humidity;BME280_pressure;Samples;Min_cycle;Max_cycle;Signal;HPM_P1;HPM_P2
2021/05/11 00:00:42;;;;;;;8.95;2.03;;;;;;;16.15;80.57;100309.81;5015359;28;20029;-84
2021/05/11 00:03:08;;;;;;;6.97;1.42;;;;;;;16.15;80.98;100317.94;5027001;28;20552;-84
2021/05/11 00:05:33;;;;;;;6.35;0.98;;;;;;;16.16;81.50;100316.94;5031935;28;20044;-85
2021/05/11 00:07:59;;;;;;;3.58;1.35;;;;;;;16.15;82.06;100317.94;5033392;28;20029;-84
2021/05/11 00:10:26;;;;;;;6.78;1.50;;;;;;;16.12;82.83;100310.09;5027414;28;20032;-85
2021/05/11 00:12:53;;;;;;;9.23;1.50;;;;;;;16.09;83.46;100304.97;5037009;28;20039;-85
2021/05/11 00:15:19;;;;;;;5.32;1.73;;;;;;;16.07;84.02;100325.06;5033378;28;20049;-85
2021/05/11 00:17:45;;;;;;;3.65;1.35;;;;;;;16.03;84.69;100331.75;5034652;28;20045;-84
2021/05/11 00:20:12;;;;;;;3.00;1.10;;;;;;;15.91;85.31;100339.19;5014191;28;20093;-84
2021/05/11 00:22:37;;;;;;;5.35;1.40;;;;;;;15.89;85.63;100335.75;5029716;28;20561;-84
2021/05/11 00:25:03;;;;;;;2.40;1.48;;;;;;;15.78;86.59;100336.75;5030353;28;20051;-84
2021/05/11 00:27:29;;;;;;;4.78;1.50;;;;;;;15.76;86.95;100337.88;5028122;28;20083;-83
2021/05/11 00:29:54;;;;;;;7.22;1.38;;;;;;;15.77;86.70;100343.16;5008008;28;20041;-83
2021/05/11 00:32:20;;;;;;;3.97;1.70;;;;;;;15.74;87.90;100331.72;5015309;28;20036;-83
2021/05/11 00:34:45;;;;;;;4.57;1.70;;;;;;;15.73;88.69;100347.13;5029274;28;20036;-83
2021/05/11 00:37:11;;;;;;;7.97;1.63;;;;;;;15.76;89.59;100345.97;5003275;28;20037;-83
2021/05/11 00:39:36;;;;;;;7.03;1.38;;;;;;;15.76;90.45;100351.41;5031329;28;20030;-82
2021/05/11 00:42:02;;;;;;;2.80;1.73;;;;;;;15.76;91.43;100337.88;5030471;28;20041;-83
2021/05/11 00:44:28;;;;;;;6.47;1.65;;;;;;;15.76;92.17;100348.69;5028307;28;20029;-83
2021/05/11 00:47:00;;;;;;;3.15;1.55;;;;;;;15.74;93.02;100345.25;5030269;28;20098;-83
2021/05/11 00:49:26;;;;;;;4.97;1.60;;;;;;;15.77;93.88;100343.16;5029593;28;20033;-83
2021/05/11 00:51:52;;;;;;;3.92;1.50;;;;;;;15.67;95.22;100336.03;5028934;28;20076;-83
2021/05/11 00:54:18;;;;;;;6.63;1.88;;;;;;;15.59;96.88;100334.00;5036625;28;20496;-83
2021/05/11 00:56:46;;;;;;;9.27;2.65;;;;;;;15.57;97.03;100337.84;5015101;28;20128;-83
2021/05/11 00:59:17;;;;;;;6.30;2.17;;;;;;;15.56;97.52;100341.53;5012971;28;20033;-84
2021/05/11 01:01:43;;;;;;;3.65;1.70;;;;;;;15.45;97.84;100341.63;5030473;28;20041;-83
2021/05/11 01:04:09;;;;;;;5.70;2.00;;;;;;;15.39;98.17;100346.59;5034467;28;20252;-83
2021/05/11 01:06:34;;;;;;;4.15;1.63;;;;;;;15.51;98.06;100347.34;5030475;28;20037;-83
2021/05/11 01:09:00;;;;;;;5.05;2.05;;;;;;;15.37;99.13;100351.28;5016641;28;20352;-83
2021/05/11 01:11:26;;;;;;;6.28;2.20;;;;;;;15.39;100.00;100348.44;5029613;28;20082;-83
2021/05/11 01:13:52;;;;;;;5.57;2.72;;;;;;;15.36;100.00;100338.78;5034527;28;20505;-83
2021/05/11 01:16:18;;;;;;;8.73;2.05;;;;;;;15.31;100.00;100346.44;5028275;28;20033;-84
2021/05/11 01:18:44;;;;;;;3.83;2.00;;;;;;;15.21;100.00;100345.56;5029334;28;20033;-83
2021/05/11 01:21:48;;;;;;;10.43;2.28;;;;;;;15.08;100.00;100338.66;5030017;28;20165;-83
2021/05/11 01:26:50;;;;;;;6.32;2.65;;;;;;;14.95;100.00;100349.72;5027808;28;21159;-83
2021/05/11 01:30:20;;;;;;;4.90;2.53;;;;;;;14.95;100.00;100352.41;5031859;28;20686;-82
2021/05/11 01:32:25;;;;;;;10.48;2.72;;;;;;;14.85;100.00;100348.81;5034911;28;20045;-83
2021/05/11 01:54:00;;;;;;;7.32;2.72;;;;;;;14.69;100.00;100338.47;5030954;28;20498;-83
2021/05/11 02:23:08;;;;;;;7.65;2.70;;;;;;;14.42;100.00;100328.25;5041977;28;20094;-83
2021/05/11 02:25:33;;;;;;;5.38;2.58;;;;;;;14.42;100.00;100330.97;5011221;28;20053;-82
2021/05/11 02:27:59;;;;;;;7.45;2.60;;;;;;;14.51;100.00;100334.69;5029330;28;20490;-83
2021/05/11 02:30:25;;;;;;;7.18;3.08;;;;;;;14.53;100.00;100328.16;5027735;28;20121;-83
2021/05/11 02:32:51;;;;;;;4.30;2.58;;;;;;;14.49;100.00;100320.47;5013685;28;20461;-83
2021/05/11 02:35:18;;;;;;;4.78;2.72;;;;;;;14.46;100.00;100324.28;5039959;28;20026;-83
2021/05/11 02:37:44;;;;;;;8.38;3.50;;;;;;;14.46;100.00;100316.19;5021861;28;20025;-83
2021/05/11 02:40:12;;;;;;;10.32;3.08;;;;;;;14.45;100.00;100322.56;5025034;28;20140;-83
2021/05/11 02:42:39;;;;;;;5.05;2.70;;;;;;;14.42;100.00;100330.09;5033104;28;20092;-83
2021/05/11 02:45:13;;;;;;;7.93;2.30;;;;;;;14.44;100.00;100328.13;5016399;28;20072;-83
2021/05/11 02:47:49;;;;;;;3.47;2.05;;;;;;;14.60;100.00;100330.34;5033247;28;20037;-83
2021/05/11 02:50:23;;;;;;;6.00;2.92;;;;;;;14.43;100.00;100327.28;5028008;28;20030;-83
2021/05/11 02:52:49;;;;;;;3.65;2.17;;;;;;;14.40;100.00;100322.13;5010814;28;20034;-83
2021/05/11 02:55:16;;;;;;;5.47;2.88;;;;;;;14.43;100.00;100316.47;5026620;28;20505;-83
2021/05/11 02:57:42;;;;;;;9.27;2.80;;;;;;;14.36;100.00;100315.25;5011564;28;20029;-83
2021/05/11 03:00:09;;;;;;;4.03;2.42;;;;;;;14.57;100.00;100316.09;5015144;28;20549;-83
2021/05/11 03:02:35;;;;;;;10.75;2.90;;;;;;;14.44;100.00;100312.75;5016452;28;20479;-83
2021/05/11 03:05:01;;;;;;;6.28;2.88;;;;;;;14.37;100.00;100317.00;5011377;28;20052;-83
2021/05/11 03:07:26;;;;;;;5.82;2.95;;;;;;;14.39;100.00;100314.16;5012909;28;20076;-83
2021/05/11 03:09:52;;;;;;;6.28;2.83;;;;;;;14.42;100.00;100313.91;5031075;28;20071;-83
2021/05/11 03:12:19;;;;;;;7.60;3.20;;;;;;;14.42;100.00;100320.16;5013126;28;20558;-83
2021/05/11 03:14:45;;;;;;;4.53;3.38;;;;;;;14.41;100.00;100318.44;5032543;28;20387;-82
2021/05/11 03:17:10;;;;;;;8.38;3.30;;;;;;;14.35;100.00;100313.53;5011611;28;20030;-83
2021/05/11 03:19:36;;;;;;;7.93;3.15;;;;;;;14.43;100.00;100316.47;5029405;28;20025;-83
2021/05/11 03:22:01;;;;;;;4.45;3.10;;;;;;;14.32;100.00;100313.78;5013898;28;20163;-83
2021/05/11 03:24:27;;;;;;;5.82;3.30;;;;;;;14.27;100.00;100315.16;5014106;28;20124;-82
2021/05/11 03:26:52;;;;;;;6.15;3.13;;;;;;;14.24;100.00;100310.91;5019380;28;20397;-83
2021/05/11 03:29:18;;;;;;;9.48;3.55;;;;;;;14.26;100.00;100308.09;5028766;28;20196;-83
2021/05/11 03:31:44;;;;;;;5.28;3.70;;;;;;;14.28;100.00;100312.34;5028550;28;20033;-83
2021/05/11 03:34:09;;;;;;;6.53;4.20;;;;;;;14.19;100.00;100307.75;5023674;28;20017;-82
2021/05/11 03:36:36;;;;;;;8.50;4.10;;;;;;;14.32;100.00;100313.78;5028932;28;20340;-83
2021/05/11 03:39:05;;;;;;;6.90;3.80;;;;;;;14.28;100.00;100304.25;5033999;28;20623;-83
2021/05/11 03:41:36;;;;;;;7.13;3.75;;;;;;;14.21;100.00;100303.06;5014121;28;20034;-83
2021/05/11 03:44:10;;;;;;;8.13;4.22;;;;;;;14.22;100.00;100306.63;5017562;28;20030;-83
2021/05/11 03:46:37;;;;;;;4.95;3.55;;;;;;;14.26;100.00;100302.69;5031761;28;20329;-83
2021/05/11 03:49:03;;;;;;;6.60;4.20;;;;;;;14.17;100.00;100304.31;5015667;28;20044;-83
2021/05/11 03:51:29;;;;;;;6.13;3.80;;;;;;;14.19;100.00;100310.47;5016123;28;20040;-82
2021/05/11 03:53:55;;;;;;;7.68;4.22;;;;;;;14.35;100.00;100316.22;5032453;28;20709;-82
2021/05/11 03:56:20;;;;;;;8.75;3.70;;;;;;;14.26;100.00;100321.59;5026010;28;20037;-82
2021/05/11 03:58:45;;;;;;;6.80;3.58;;;;;;;14.25;100.00;100322.56;5015308;28;20095;-83
2021/05/11 04:01:11;;;;;;;6.10;3.75;;;;;;;14.15;100.00;100326.03;5024937;28;20021;-82
2021/05/11 04:03:36;;;;;;;7.65;4.20;;;;;;;14.15;100.00;100322.47;5029004;28;20497;-82
2021/05/11 04:06:03;;;;;;;8.73;4.85;;;;;;;14.16;100.00;100319.66;5030166;28;20024;-83
2021/05/11 04:08:37;;;;;;;7.90;3.70;;;;;;;14.10;100.00;100320.19;5030093;28;20037;-83
2021/05/11 04:16:27;;;;;;;7.85;3.97;;;;;;;14.06;100.00;100323.28;5029493;28;20040;-83
2021/05/11 04:18:53;;;;;;;6.32;4.05;;;;;;;14.12;100.00;100322.75;5023417;28;20076;-82
2021/05/11 04:21:20;;;;;;;9.20;4.38;;;;;;;14.08;100.00;100307.78;5033043;28;20034;-82
2021/05/11 04:23:47;;;;;;;11.70;4.28;;;;;;;14.21;100.00;100316.56;5020474;28;20088;-82
2021/05/11 04:26:13;;;;;;;9.20;4.30;;;;;;;14.09;100.00;100313.06;5036745;28;20128;-84
2021/05/11 04:28:40;;;;;;;6.75;4.13;;;;;;;14.06;100.00;100318.75;5029727;28;20067;-82
2021/05/11 04:31:07;;;;;;;7.38;4.05;;;;;;;14.06;100.00;100317.88;5030087;28;20060;-82
2021/05/11 04:33:32;;;;;;;6.07;4.68;;;;;;;14.04;100.00;100319.84;5023047;28;20026;-82
2021/05/11 04:35:59;;;;;;;9.15;4.38;;;;;;;14.06;100.00;100315.19;5029482;28;20504;-82
2021/05/11 04:38:24;;;;;;;8.75;4.72;;;;;;;14.09;100.00;100318.47;5029882;28;20022;-82
2021/05/11 04:40:50;;;;;;;8.80;4.50;;;;;;;14.10;100.00;100330.13;5027276;28;20056;-82
2021/05/11 04:43:20;;;;;;;8.23;4.63;;;;;;;14.17;100.00;100326.78;5031859;28;20064;-83
2021/05/11 04:45:46;;;;;;;11.07;4.78;;;;;;;14.10;100.00;100335.50;5049763;28;20029;-82
2021/05/11 04:48:12;;;;;;;7.40;4.35;;;;;;;14.14;100.00;100331.56;5015128;28;20033;-82
2021/05/11 04:50:38;;;;;;;7.10;4.47;;;;;;;14.07;100.00;100327.69;5026317;28;20080;-83
2021/05/11 04:53:04;;;;;;;14.07;4.85;;;;;;;14.06;100.00;100331.38;5027353;28;20079;-82
2021/05/11 04:55:31;;;;;;;9.52;4.80;;;;;;;14.06;100.00;100339.47;5032529;28;20056;-81
2021/05/11 04:57:57;;;;;;;14.50;5.25;;;;;;;14.10;100.00;100339.06;5033408;28;20359;-82
2021/05/11 05:00:23;;;;;;;9.52;4.60;;;;;;;14.12;100.00;100333.56;5032286;28;20056;-82
2021/05/11 05:02:53;;;;;;;8.73;4.47;;;;;;;14.16;100.00;100335.84;5015675;28;20029;-81
2021/05/11 05:05:19;;;;;;;12.57;4.32;;;;;;;14.17;100.00;100328.63;5022971;28;20414;-82
2021/05/11 05:07:45;;;;;;;10.88;4.43;;;;;;;14.17;100.00;100331.31;5030980;28;20074;-82
2021/05/11 05:10:12;;;;;;;7.72;4.85;;;;;;;14.11;100.00;100327.28;5028844;28;20037;-82
2021/05/11 05:12:37;;;;;;;6.68;3.95;;;;;;;14.12;100.00;100320.06;5026611;28;20053;-82
2021/05/11 05:15:03;;;;;;;11.63;4.43;;;;;;;14.13;100.00;100313.69;5012429;28;20045;-83
2021/05/11 05:17:29;;;;;;;5.95;3.65;;;;;;;14.17;100.00;100309.72;5026669;28;20033;-82
2021/05/11 05:19:54;;;;;;;13.43;4.05;;;;;;;14.22;100.00;100315.56;5013701;28;20490;-82
2021/05/11 05:22:21;;;;;;;6.05;3.63;;;;;;;14.28;100.00;100311.50;5011970;28;20025;-82
2021/05/11 05:24:52;;;;;;;9.95;3.90;;;;;;;14.30;100.00;100320.31;5012906;28;20060;-82
2021/05/11 05:27:23;;;;;;;6.53;3.40;;;;;;;14.31;100.00;100312.09;5012782;28;20037;-82
2021/05/11 05:29:49;;;;;;;6.10;3.97;;;;;;;14.38;100.00;100318.69;5026966;28;20044;-82
2021/05/11 05:32:15;;;;;;;6.15;3.70;;;;;;;14.45;100.00;100316.31;5010751;28;20021;-82
2021/05/11 05:34:42;;;;;;;7.93;3.88;;;;;;;14.49;100.00;100317.78;5028162;28;20048;-82
2021/05/11 05:37:08;;;;;;;6.55;3.00;;;;;;;14.45;100.00;100324.41;5029244;28;20576;-82
2021/05/11 05:39:47;;;;;;;7.53;3.58;;;;;;;14.34;100.00;100316.34;5029135;28;20029;-82
2021/05/11 05:42:13;;;;;;;9.95;3.95;;;;;;;14.46;100.00;100310.78;5034430;28;20474;-82
2021/05/11 05:44:39;;;;;;;7.97;3.40;;;;;;;14.42;100.00;100320.16;5029798;28;20045;-82
2021/05/11 05:47:04;;;;;;;6.55;3.17;;;;;;;14.38;100.00;100313.28;5029020;28;20460;-82
2021/05/11 05:49:48;;;;;;;8.05;3.30;;;;;;;14.40;100.00;100305.91;5028920;28;20373;-82
2021/05/11 05:52:21;;;;;;;5.88;3.17;;;;;;;14.43;100.00;100300.28;5025525;28;20026;-82
2021/05/11 05:54:47;;;;;;;;;;;;;;;14.41;100.00;100304.06;5025634;28;20034;-82
2021/05/11 05:57:13;;;;;;;8.68;3.15;;;;;;;14.49;100.00;100294.31;5010087;28;19924;-82
2021/05/11 05:59:41;;;;;;;9.85;3.53;;;;;;;14.69;100.00;100289.03;5030689;28;20037;-82
2021/05/11 06:02:15;;;;;;;7.53;3.30;;;;;;;15.29;100.00;100297.06;5026263;28;20394;-82
2021/05/11 06:04:40;;;;;;;11.48;3.05;;;;;;;16.22;100.00;100298.41;5011566;28;20044;-82
2021/05/11 06:07:06;;;;;;;11.45;3.60;;;;;;;16.94;100.00;100285.94;5013310;28;20038;-82
2021/05/11 06:09:31;;;;;;;10.13;3.55;;;;;;;17.57;100.00;100291.41;5023711;28;20033;-82
2021/05/11 06:12:01;;;;;;;6.00;2.40;;;;;;;17.94;94.82;100285.88;5024577;28;20470;-83
2021/05/11 06:17:13;;;;;;;6.45;2.70;;;;;;;17.22;93.53;100280.53;5025719;28;20091;-82
2021/05/11 06:19:40;;;;;;;6.90;2.63;;;;;;;17.01;98.01;100290.75;5025489;28;20033;-82
2021/05/11 06:22:05;;;;;;;6.95;2.22;;;;;;;16.92;100.00;100292.50;5012169;28;20107;-83
2021/05/11 06:24:31;;;;;;;7.32;3.00;;;;;;;16.97;99.17;100288.34;5004245;28;20033;-82
2021/05/11 06:26:56;;;;;;;7.47;2.60;;;;;;;17.02;96.78;100292.47;5023249;28;20063;-82
2021/05/11 06:29:24;;;;;;;5.50;2.58;;;;;;;16.88;98.62;100288.38;5020457;28;20109;-82
2021/05/11 06:31:49;;;;;;;8.32;2.35;;;;;;;16.79;99.08;100290.13;5008802;28;20566;-83
2021/05/11 06:34:15;;;;;;;6.88;2.70;;;;;;;16.68;100.00;100295.75;5022780;28;20067;-82
2021/05/11 06:36:40;;;;;;;3.50;2.30;;;;;;;16.64;100.00;100294.34;5013322;28;20029;-82
2021/05/11 06:39:11;;;;;;;12.13;3.03;;;;;;;16.64;97.16;100299.75;5021444;28;20042;-82
2021/05/11 06:41:38;;;;;;;10.43;2.60;;;;;;;16.54;96.88;100304.31;5009279;28;20038;-82
2021/05/11 06:44:58;;;;;;;6.25;2.42;;;;;;;16.55;98.74;100303.31;5024429;28;20033;-82
2021/05/11 06:49:39;;;;;;;8.13;3.10;;;;;;;16.25;100.00;100309.78;5041193;28;20102;-82
2021/05/11 06:54:49;;;;;;;8.55;3.53;;;;;;;16.28;100.00;100311.38;5023917;28;20747;-81
2021/05/11 06:57:15;;;;;;;7.65;2.65;;;;;;;16.15;100.00;100309.81;5025229;28;20030;-82
2021/05/11 06:59:41;;;;;;;5.68;3.00;;;;;;;16.23;100.00;100305.53;5020339;28;20040;-82
2021/05/11 07:02:06;;;;;;;11.82;3.47;;;;;;;16.14;100.00;100305.38;5023380;28;20029;-82
2021/05/11 07:04:32;;;;;;;5.72;3.03;;;;;;;16.17;100.00;100302.38;5019652;28;20041;-83
2021/05/11 07:06:58;;;;;;;21.40;6.60;;;;;;;16.24;100.00;100297.22;5023737;28;20285;-83
2021/05/11 07:09:36;;;;;;;9.88;3.08;;;;;;;16.12;100.00;100293.84;5023846;28;21035;-82
2021/05/11 07:14:29;;;;;;;7.25;2.80;;;;;;;16.11;100.00;100293.97;5021990;28;20116;-82
2021/05/11 07:16:55;;;;;;;8.02;3.15;;;;;;;16.00;100.00;100289.56;5020126;28;20033;-82
2021/05/11 07:19:21;;;;;;;8.10;2.72;;;;;;;15.99;100.00;100279.75;5025627;28;20037;-83
2021/05/11 07:21:46;;;;;;;9.32;3.78;;;;;;;16.10;100.00;100278.75;5024717;28;20029;-82
2021/05/11 07:24:12;;;;;;;8.20;3.30;;;;;;;16.08;100.00;100273.47;5005068;28;20037;-82
2021/05/11 07:26:58;;;;;;;4.25;2.70;;;;;;;16.09;100.00;100266.22;5002601;28;20506;-82
2021/05/11 07:29:47;;;;;;;8.50;2.80;;;;;;;16.08;100.00;100264.50;5022063;28;20048;-82
2021/05/11 07:32:08;;;;;;;11.02;2.75;;;;;;;16.09;100.00;100267.06;5021639;28;20506;-82
2021/05/11 07:34:34;;;;;;;6.75;2.88;;;;;;;16.13;100.00;100265.75;5018505;28;20235;-82
2021/05/11 07:37:00;;;;;;;7.45;3.42;;;;;;;16.24;100.00;100270.16;5025710;28;20034;-82
2021/05/11 07:39:25;;;;;;;7.03;2.80;;;;;;;16.38;100.00;100263.44;5026657;28;20437;-82
2021/05/11 07:41:51;;;;;;;8.27;3.03;;;;;;;16.45;100.00;100272.69;5010229;28;20372;-82
2021/05/11 07:44:16;;;;;;;8.60;3.08;;;;;;;16.46;100.00;100275.25;5012440;28;20034;-83
2021/05/11 07:46:50;;;;;;;5.35;2.58;;;;;;;16.47;100.00;100278.81;5023857;28;20124;-82
2021/05/11 08:15:34;;;;;;;6.50;2.38;;;;;;;16.51;100.00;100272.09;5022790;28;20124;-83
2021/05/11 08:28:42;;;;;;;11.40;2.40;;;;;;;16.68;100.00;100259.66;5046926;28;20033;-82
2021/05/11 08:31:08;;;;;;;8.38;2.40;;;;;;;16.78;100.00;100252.34;5014373;28;20179;-82
2021/05/11 08:33:34;;;;;;;8.40;2.53;;;;;;;16.84;100.00;100247.19;5023969;28;20481;-82
2021/05/11 08:36:00;;;;;;;9.10;2.60;;;;;;;16.97;100.00;100244.13;5018536;28;20042;-83
2021/05/11 08:38:25;;;;;;;7.95;2.88;;;;;;;17.00;100.00;100246.53;5005834;28;20034;-83
2021/05/11 08:40:51;;;;;;;8.90;2.83;;;;;;;17.13;100.00;100248.88;5019369;28;20063;-82
2021/05/11 08:43:27;;;;;;;4.75;2.30;;;;;;;17.26;100.00;100263.78;5025430;28;20088;-82
2021/05/11 08:45:55;;;;;;;6.47;2.40;;;;;;;17.39;100.00;100275.13;5013667;28;20144;-83
2021/05/11 08:48:22;;;;;;;7.97;3.20;;;;;;;17.53;96.79;100262.88;5018368;28;20437;-82
2021/05/11 08:50:51;;;;;;;6.78;2.75;;;;;;;17.59;97.06;100275.00;5026291;28;20026;-83
2021/05/11 09:52:20;;;;;;;5.47;2.90;;;;;;;20.10;75.48;100254.53;5018649;28;20039;-83
2021/05/11 10:48:18;;;;;;;;;;;;;;;19.62;71.40;100236.31;5040039;28;20048;-83
2021/05/11 10:50:46;;;;;;;7.72;4.50;;;;;;;19.56;72.61;100226.09;5001652;28;19928;-85
2021/05/11 10:53:46;;;;;;;10.50;3.28;;;;;;;19.70;71.33;100222.69;5005714;28;20029;-84
2021/05/11 10:56:21;;;;;;;6.97;3.38;;;;;;;19.45;71.48;100229.09;5023728;28;20126;-86
2021/05/11 11:01:58;;;;;;;13.50;3.35;;;;;;;19.33;72.39;100221.25;5022977;28;20065;-85
2021/05/11 11:04:32;;;;;;;12.02;3.25;;;;;;;19.37;73.39;100211.75;5022288;28;20660;-85
2021/05/11 11:07:00;;;;;;;8.52;3.35;;;;;;;19.22;74.91;100210.69;5024448;28;20040;-83
2021/05/11 11:09:30;;;;;;;8.95;3.50;;;;;;;19.20;74.77;100209.13;5026780;28;20032;-84
2021/05/11 11:11:57;;;;;;;5.68;3.20;;;;;;;19.14;75.32;100220.69;5019218;28;20482;-84
2021/05/11 11:14:23;;;;;;;11.55;3.80;;;;;;;19.24;74.25;100227.69;5012463;28;20375;-84
2021/05/11 11:16:59;;;;;;;8.40;3.53;;;;;;;19.13;75.40;100233.44;5008026;28;20033;-84
2021/05/11 11:19:25;;;;;;;8.70;3.53;;;;;;;19.30;74.96;100237.06;5027708;28;20140;-84
2021/05/11 11:24:30;;;;;;;10.55;3.05;;;;;;;19.04;74.68;100226.28;5042925;28;20413;-84
2021/05/11 11:26:59;;;;;;;6.82;2.83;;;;;;;18.95;75.04;100232.69;5025602;28;20047;-84
2021/05/11 11:29:26;;;;;;;8.02;2.65;;;;;;;18.84;75.21;100236.56;5024739;28;20064;-83
2021/05/11 11:31:53;;;;;;;8.95;2.70;;;;;;;18.75;76.09;100242.13;5026587;28;20041;-84
2021/05/11 11:34:25;;;;;;;8.43;2.67;;;;;;;18.79;75.68;100232.63;5026347;28;20091;-84
2021/05/11 11:36:58;;;;;;;7.47;2.78;;;;;;;18.42;78.01;100239.19;5019068;28;20041;-84
2021/05/11 11:39:25;;;;;;;;;;;;;;;18.28;79.37;100242.50;5026213;28;20046;-84
2021/05/11 11:41:51;;;;;;;9.15;3.58;;;;;;;18.25;79.36;100256.41;5013539;28;19924;-84
2021/05/11 11:44:19;;;;;;;12.02;4.13;;;;;;;18.21;80.53;100263.16;5023748;28;20395;-84
2021/05/11 11:47:09;;;;;;;8.50;3.90;;;;;;;17.99;81.31;100266.38;5026527;28;20091;-85
2021/05/11 11:49:38;;;;;;;8.73;4.18;;;;;;;17.88;82.90;100274.78;5022309;28;20037;-84
2021/05/11 11:52:12;;;;;;;11.07;3.95;;;;;;;17.86;83.24;100271.34;5007675;28;20033;-83
2021/05/11 11:54:43;;;;;;;11.07;4.82;;;;;;;17.53;87.10;100271.00;5021275;28;20030;-85
2021/05/11 12:00:09;;;;;;;10.73;3.88;;;;;;;17.26;88.76;100276.50;5021331;28;20037;-86
2021/05/11 12:03:02;;;;;;;12.95;4.75;;;;;;;17.35;89.73;100283.69;5035624;28;20090;-86
2021/05/11 12:05:41;;;;;;;11.25;5.93;;;;;;;17.28;91.75;100282.63;5024491;28;20083;-87
2021/05/11 12:10:53;;;;;;;11.20;5.13;;;;;;;17.14;93.62;100285.84;5028621;28;20127;-85
2021/05/11 12:13:21;;;;;;;14.25;6.63;;;;;;;17.05;95.16;100292.16;5019516;28;20032;-86
2021/05/11 12:16:06;;;;;;;14.60;5.95;;;;;;;17.03;96.41;100294.19;5021602;28;20025;-85
2021/05/11 12:18:32;;;;;;;17.17;6.78;;;;;;;17.06;96.68;100292.00;5025339;28;20044;-85
2021/05/11 12:21:00;;;;;;;19.98;6.93;;;;;;;17.03;97.84;100296.91;5012647;28;20083;-86
2021/05/11 12:23:26;;;;;;;13.68;7.03;;;;;;;17.04;98.84;100296.72;5027394;28;20032;-87
2021/05/11 12:26:00;;;;;;;68.88;34.38;;;;;;;17.01;99.21;100296.19;5017070;28;20405;-87
2021/05/11 12:28:34;;;;;;;21.40;12.02;;;;;;;16.87;100.00;100305.66;5003823;28;20118;-87
2021/05/11 12:31:06;;;;;;;17.10;7.43;;;;;;;16.78;99.79;100312.84;5007591;28;20037;-86
2021/05/11 12:33:42;;;;;;;11.38;5.53;;;;;;;16.69;99.00;100311.00;5019975;28;20079;-86
2021/05/11 12:36:49;;;;;;;11.48;5.57;;;;;;;16.46;99.57;100307.75;5019284;28;20045;-86
2021/05/11 12:42:15;;;;;;;12.45;4.70;;;;;;;16.41;99.62;100303.78;5015139;28;20045;-85
2021/05/11 12:44:42;;;;;;;14.40;5.97;;;;;;;16.37;99.40;100305.06;5017937;28;20407;-85
2021/05/11 12:47:08;;;;;;;10.32;5.45;;;;;;;16.37;100.00;100296.94;5007104;28;20594;-84
2021/05/11 12:49:34;;;;;;;9.77;5.20;;;;;;;16.24;100.00;100296.38;5024778;28;20029;-84
2021/05/11 12:52:01;;;;;;;8.82;5.75;;;;;;;16.25;100.00;100298.94;5006857;28;20120;-84
2021/05/11 12:54:39;;;;;;;15.57;5.70;;;;;;;16.29;100.00;100304.94;5025635;28;20036;-84
2021/05/11 12:57:27;;;;;;;10.73;5.55;;;;;;;16.32;100.00;100310.06;5011901;28;20546;-83
2021/05/11 13:00:06;;;;;;;14.38;5.95;;;;;;;16.39;100.00;100306.63;5024927;28;20034;-83
2021/05/11 13:16:38;;;;;;;11.75;5.18;;;;;;;16.49;100.00;100285.78;5026177;28;20400;-82
2021/05/11 13:32:04;;;;;;;8.45;4.93;;;;;;;16.52;100.00;100273.81;5020038;28;20445;-83
2021/05/11 13:34:33;;;;;;;8.30;5.10;;;;;;;16.52;100.00;100285.50;5026761;28;20030;-84
2021/05/11 13:36:59;;;;;;;12.05;4.95;;;;;;;16.51;100.00;100293.78;5021334;28;20486;-84
2021/05/11 13:39:24;;;;;;;8.63;5.28;;;;;;;16.49;100.00;100299.31;5020475;28;20044;-83
2021/05/11 13:41:50;;;;;;;10.23;4.85;;;;;;;16.52;100.00;100292.78;5025060;28;20082;-84
2021/05/11 13:44:15;;;;;;;11.55;4.40;;;;;;;16.63;100.00;100287.19;5005836;28;20037;-83
2021/05/11 13:46:41;;;;;;;9.75;3.92;;;;;;;16.66;100.00;100292.34;5024693;28;20064;-83
2021/05/11 13:49:06;;;;;;;13.25;4.70;;;;;;;16.67;100.00;100291.31;5008113;28;20137;-84
2021/05/11 13:51:32;;;;;;;8.75;5.00;;;;;;;16.65;100.00;100285.22;5010939;28;20060;-83
2021/05/11 13:54:01;;;;;;;10.35;4.07;;;;;;;16.70;100.00;100288.31;5007485;28;20657;-84
2021/05/11 14:04:26;;;;;;;8.80;4.45;;;;;;;16.73;100.00;100279.03;5027217;28;20025;-83
2021/05/11 14:06:52;;;;;;;10.32;4.15;;;;;;;16.69;100.00;100274.91;5007454;28;20048;-83
2021/05/11 14:09:18;;;;;;;11.60;4.30;;;;;;;16.69;100.00;100275.78;5012272;28;20057;-83
2021/05/11 14:11:43;;;;;;;11.10;4.28;;;;;;;16.71;100.00;100272.91;5016912;28;20030;-83
2021/05/11 14:14:13;;;;;;;7.25;4.95;;;;;;;16.74;100.00;100273.47;5024856;28;20032;-83
2021/05/11 14:16:42;;;;;;;12.07;4.55;;;;;;;16.76;100.00;100276.88;5022308;28;20036;-83
2021/05/11 14:19:07;;;;;;;8.73;4.20;;;;;;;16.70;100.00;100269.34;5025452;28;20037;-84
2021/05/11 14:21:33;;;;;;;8.85;5.18;;;;;;;16.62;100.00;100271.09;5018122;28;20048;-83
2021/05/11 14:23:58;;;;;;;9.07;5.00;;;;;;;16.63;100.00;100275.50;5017770;28;20042;-82
2021/05/11 14:26:26;;;;;;;10.32;5.65;;;;;;;16.70;100.00;100274.78;5010419;28;20033;-82
2021/05/11 14:28:52;;;;;;;10.23;5.65;;;;;;;16.61;100.00;100267.50;5006152;28;20041;-82
2021/05/11 14:31:17;;;;;;;9.85;5.30;;;;;;;16.58;100.00;100265.09;5003908;28;20087;-83
2021/05/11 14:33:44;;;;;;;9.82;6.53;;;;;;;16.54;100.00;100263.69;5028405;28;20037;-82
2021/05/11 14:36:09;;;;;;;13.10;6.20;;;;;;;16.56;100.00;100258.94;5015575;28;20576;-84
2021/05/11 14:38:36;;;;;;;27.95;6.53;;;;;;;16.60;100.00;100255.00;5022767;28;20403;-82
2021/05/11 14:41:03;;;;;;;12.52;6.85;;;;;;;16.46;100.00;100247.31;5015654;28;20521;-83
2021/05/11 14:43:30;;;;;;;12.93;6.78;;;;;;;16.53;100.00;100249.28;5029964;28;20045;-82
2021/05/11 14:46:03;;;;;;;13.15;8.05;;;;;;;16.43;100.00;100244.88;5004139;28;20041;-82
2021/05/11 14:48:30;;;;;;;11.95;7.00;;;;;;;16.43;100.00;100242.16;5004621;28;20042;-82
2021/05/11 14:50:56;;;;;;;14.05;7.75;;;;;;;16.48;100.00;100250.69;5022818;28;20033;-82
2021/05/11 14:53:22;;;;;;;12.82;7.38;;;;;;;16.51;100.00;100245.00;5043982;28;20040;-83
2021/05/11 14:55:48;;;;;;;13.65;7.22;;;;;;;16.49;100.00;100247.84;5011473;28;20029;-83
2021/05/11 14:58:13;;;;;;;16.52;8.23;;;;;;;16.45;100.00;100245.59;5027256;28;20048;-83
2021/05/11 15:00:39;;;;;;;13.38;8.15;;;;;;;16.44;100.00;100265.56;5023143;28;20029;-82
2021/05/11 15:03:04;;;;;;;11.05;7.47;;;;;;;16.39;100.00;100275.97;5021920;28;20096;-83
2021/05/11 15:05:30;;;;;;;17.23;8.45;;;;;;;16.40;100.00;100269.56;5006511;28;20035;-82
2021/05/11 15:07:55;;;;;;;16.83;8.43;;;;;;;16.43;100.00;100269.25;5016622;28;20041;-83
2021/05/11 15:10:21;;;;;;;17.25;9.27;;;;;;;16.41;100.00;100264.00;5030454;28;20473;-83
2021/05/11 15:12:48;;;;;;;16.13;8.35;;;;;;;16.45;100.00;100261.84;5026327;28;20519;-82
2021/05/11 15:15:17;;;;;;;20.52;9.40;;;;;;;16.55;100.00;100262.66;5022585;28;20033;-83
2021/05/11 15:20:09;;;;;;;13.60;8.60;;;;;;;16.60;100.00;100265.84;5030955;28;20111;-82
2021/05/11 15:22:34;;;;;;;18.17;9.70;;;;;;;16.65;100.00;100270.81;5006029;28;20466;-82
2021/05/11 15:25:00;;;;;;;16.42;8.60;;;;;;;16.63;100.00;100275.50;5023911;28;20047;-82
2021/05/11 15:27:25;;;;;;;15.32;9.25;;;;;;;16.67;100.00;100279.63;5026374;28;20043;-82
2021/05/11 15:29:50;;;;;;;12.82;8.57;;;;;;;16.66;100.00;100281.50;5011943;28;20044;-82
2021/05/11 15:32:43;;;;;;;19.13;8.95;;;;;;;16.71;100.00;100283.75;5020128;28;20033;-82
2021/05/11 15:35:14;;;;;;;19.42;8.40;;;;;;;16.67;100.00;100285.88;5004379;28;20043;-82
2021/05/11 15:37:41;;;;;;;15.32;8.38;;;;;;;16.78;100.00;100296.56;5029433;28;20456;-82
2021/05/11 15:40:10;;;;;;;17.30;8.82;;;;;;;16.81;100.00;100295.41;5035756;28;20052;-81
2021/05/11 15:42:36;;;;;;;16.10;9.32;;;;;;;16.76;100.00;100295.00;5029863;28;20119;-82
2021/05/11 15:45:03;;;;;;;15.48;8.50;;;;;;;16.79;100.00;100291.97;5015360;28;20125;-82
2021/05/11 15:47:29;;;;;;;20.08;9.80;;;;;;;16.74;100.00;100297.84;5019746;28;20086;-82